sim
Sign-in with your pilot id or email,
or register
Callsign
Passwort

Schedule Details

Flight Number: OEO2527
Departure: Paris Charles de Gaulle Airport (LFPG) at 11:00
Arrival: Munich Airport (EDDM) at 12:30

Weather Information
Getting current METAR information for LFPG 241730Z 22010KT 9999 VCSH FEW020 FEW033TCU SCT046 13/11 Q0999 TEMPO 22020G40KT 2500 TSRA BKN020CB
Getting current METAR information for EDDM 241720Z 08005KT CAVOK 18/13 Q1006 NOSIG

Schedule Frequency

Route Map